Time;durP1;ratioP1;P1;durP2;ratioP2;P2;SDS_P1;SDS_P2;PMS_P1;PMS_P2;Temp;Humidity;BMP_temperature;BMP_pressure;BME280_temperature;BME280_humidity;BME280_pressure;Samples;Min_cycle;Max_cycle;Signal;HPM_P1;HPM_P2
2021/03/29 00:00:42;;;;;;;19.88;6.78;;;4.20;77.30;;;;;;5023798;28;20145;-58
2021/03/29 00:03:09;;;;;;;15.85;6.75;;;4.20;77.50;;;;;;5018341;28;20506;-60
2021/03/29 00:05:36;;;;;;;16.30;6.05;;;4.10;78.30;;;;;;5010177;28;20053;-59
2021/03/29 00:08:16;;;;;;;14.93;5.63;;;4.10;78.00;;;;;;5019505;28;20393;-58
2021/03/29 00:10:45;;;;;;;19.73;5.47;;;4.10;77.90;;;;;;5017615;28;20508;-59
2021/03/29 00:13:14;;;;;;;12.77;4.35;;;4.10;77.20;;;;;;5010810;28;20060;-59
2021/03/29 00:15:43;;;;;;;12.93;5.00;;;4.00;76.60;;;;;;5021442;28;20056;-59
2021/03/29 00:18:11;;;;;;;13.95;5.03;;;3.90;77.40;;;;;;5013402;28;20052;-59
2021/03/29 00:20:42;;;;;;;12.50;4.93;;;3.90;77.80;;;;;;5021200;28;20048;-61
2021/03/29 00:23:09;;;;;;;13.18;5.43;;;3.90;78.20;;;;;;5026043;28;20049;-59
2021/03/29 00:25:38;;;;;;;19.30;5.35;;;3.90;78.00;;;;;;5010754;28;20452;-59
2021/03/29 00:28:08;;;;;;;13.32;4.88;;;3.90;78.00;;;;;;5023150;28;20042;-58
2021/03/29 00:30:38;;;;;;;17.15;6.40;;;3.90;78.00;;;;;;5015663;28;20045;-59
2021/03/29 00:33:06;;;;;;;17.20;5.80;;;3.90;77.80;;;;;;5015800;28;20069;-58
2021/03/29 00:35:35;;;;;;;17.98;6.03;;;3.90;77.60;;;;;;5022629;28;20048;-58
2021/03/29 00:38:04;;;;;;;19.42;5.95;;;3.80;78.20;;;;;;5025326;28;20590;-59
2021/03/29 00:40:32;;;;;;;18.23;6.63;;;3.80;78.50;;;;;;5020025;28;20034;-59
2021/03/29 00:43:06;;;;;;;21.17;7.00;;;3.70;79.00;;;;;;5016768;28;20054;-58
2021/03/29 00:45:34;;;;;;;20.77;6.38;;;3.60;79.60;;;;;;5035655;28;20042;-59
2021/03/29 00:48:02;;;;;;;18.23;8.13;;;3.60;79.50;;;;;;5018453;28;20041;-58
2021/03/29 00:50:43;;;;;;;22.30;7.93;;;3.60;79.70;;;;;;5035643;28;20045;-59
2021/03/29 00:53:14;;;;;;;17.92;7.47;;;3.60;80.10;;;;;;5026963;28;20448;-58
2021/03/29 00:55:43;;;;;;;20.90;8.18;;;3.60;80.20;;;;;;5043485;28;20111;-58
2021/03/29 00:58:11;;;;;;;20.55;6.75;;;3.60;81.00;;;;;;5018960;28;20055;-59
2021/03/29 01:00:52;;;;;;;20.02;8.30;;;3.60;80.80;;;;;;5017420;28;20041;-58
2021/03/29 01:03:23;;;;;;;20.88;7.45;;;3.60;80.60;;;;;;5005709;28;20588;-59
2021/03/29 01:06:00;;;;;;;17.60;6.53;;;3.60;80.60;;;;;;5023726;28;20076;-58
2021/03/29 01:08:28;;;;;;;17.25;6.72;;;3.60;81.00;;;;;;5021175;28;20064;-59
2021/03/29 01:10:56;;;;;;;13.45;6.20;;;3.60;80.70;;;;;;5020657;28;20501;-59
2021/03/29 01:13:24;;;;;;;16.05;6.40;;;3.40;81.20;;;;;;5011152;28;20056;-59
2021/03/29 01:15:55;;;;;;;19.15;7.18;;;3.40;81.80;;;;;;5020679;28;20496;-59
2021/03/29 01:18:23;;;;;;;17.95;6.72;;;3.40;81.60;;;;;;5030477;28;20045;-59
2021/03/29 01:20:52;;;;;;;18.80;6.78;;;3.40;81.70;;;;;;5019625;28;20444;-60
2021/03/29 01:23:20;;;;;;;16.58;6.25;;;3.30;82.20;;;;;;5021986;28;20085;-60
2021/03/29 01:26:06;;;;;;;19.85;7.15;;;3.30;81.90;;;;;;5030092;28;20045;-59
2021/03/29 01:28:33;;;;;;;19.13;6.50;;;3.20;82.30;;;;;;5029739;28;20064;-59
2021/03/29 01:31:00;;;;;;;17.00;6.30;;;3.20;82.50;;;;;;5015159;28;20058;-59
2021/03/29 01:33:27;;;;;;;19.13;6.93;;;3.10;83.40;;;;;;5022644;28;20053;-59
2021/03/29 01:35:59;;;;;;;20.45;7.40;;;3.30;83.40;;;;;;5017999;28;20050;-60
2021/03/29 01:38:29;;;;;;;16.33;6.95;;;3.40;82.60;;;;;;5030456;28;20053;-58
2021/03/29 01:40:58;;;;;;;14.10;6.03;;;3.20;82.90;;;;;;5026286;28;20049;-58
2021/03/29 01:43:26;;;;;;;16.92;6.85;;;3.20;82.80;;;;;;5020250;28;20049;-59
2021/03/29 01:45:54;;;;;;;16.77;7.10;;;3.30;82.80;;;;;;5010704;28;20729;-60
2021/03/29 01:48:23;;;;;;;17.50;6.35;;;3.10;83.10;;;;;;5017971;28;20041;-59
2021/03/29 01:50:54;;;;;;;22.42;6.72;;;3.10;83.00;;;;;;5020213;28;20049;-59
2021/03/29 01:53:27;;;;;;;17.20;7.30;;;3.10;82.60;;;;;;5014368;28;20509;-59
2021/03/29 01:55:54;;;;;;;19.90;7.57;;;3.10;82.80;;;;;;5020426;28;20117;-59
2021/03/29 01:58:22;;;;;;;18.92;7.45;;;3.00;83.20;;;;;;5013164;28;20054;-59
2021/03/29 02:00:58;;;;;;;18.10;6.93;;;3.00;83.40;;;;;;5013532;28;20092;-59
2021/03/29 02:03:26;;;;;;;17.95;7.22;;;2.90;84.00;;;;;;5016461;28;20484;-59
2021/03/29 02:05:53;;;;;;;16.98;6.10;;;3.00;83.60;;;;;;5023756;28;20085;-59
2021/03/29 02:08:21;;;;;;;21.50;6.50;;;2.90;84.20;;;;;;5024720;28;20045;-59
2021/03/29 02:10:48;;;;;;;17.02;6.57;;;2.90;83.70;;;;;;5024780;28;20168;-59
2021/03/29 02:13:30;;;;;;;17.20;6.25;;;3.00;83.70;;;;;;5014524;28;20053;-59
2021/03/29 02:16:08;;;;;;;14.75;6.55;;;2.90;83.70;;;;;;5031849;28;20147;-59
2021/03/29 02:18:57;;;;;;;15.27;6.07;;;2.90;83.90;;;;;;5031917;28;20523;-60
2021/03/29 02:21:29;;;;;;;21.30;5.70;;;2.90;84.10;;;;;;5019314;28;20048;-59
2021/03/29 02:23:57;;;;;;;14.30;5.65;;;2.90;84.10;;;;;;5042069;28;20052;-59
2021/03/29 02:26:29;;;;;;;13.55;6.45;;;2.90;84.30;;;;;;5021010;28;20096;-58
2021/03/29 02:28:57;;;;;;;14.80;6.47;;;2.90;84.40;;;;;;5026784;28;20041;-59
2021/03/29 02:31:27;;;;;;;16.75;6.40;;;2.90;84.50;;;;;;5012369;28;20096;-59
2021/03/29 02:33:57;;;;;;;17.63;5.85;;;2.80;84.70;;;;;;5021985;28;20065;-60
2021/03/29 02:36:24;;;;;;;15.65;6.15;;;2.80;85.30;;;;;;5011422;28;20054;-59
2021/03/29 02:38:52;;;;;;;14.55;5.35;;;2.70;85.90;;;;;;5017048;28;20196;-59
2021/03/29 02:41:24;;;;;;;13.32;6.07;;;2.80;86.10;;;;;;5059505;28;20053;-59
2021/03/29 02:43:52;;;;;;;17.25;6.70;;;2.80;86.60;;;;;;5016121;28;20046;-58
2021/03/29 02:46:24;;;;;;;16.45;5.80;;;2.80;86.60;;;;;;5017853;28;20417;-58
2021/03/29 02:48:53;;;;;;;15.82;6.18;;;2.80;86.10;;;;;;5020022;28;20041;-58
2021/03/29 02:51:20;;;;;;;19.15;7.00;;;2.90;86.20;;;;;;5018606;28;20108;-58
2021/03/29 02:53:52;;;;;;;18.67;5.90;;;2.90;87.00;;;;;;5022964;28;20049;-59
2021/03/29 02:56:28;;;;;;;18.80;6.40;;;3.00;86.30;;;;;;5029768;28;20060;-59
2021/03/29 02:59:00;;;;;;;20.58;7.00;;;2.90;86.70;;;;;;5025842;28;20038;-59
2021/03/29 03:01:29;;;;;;;18.23;5.90;;;2.90;87.00;;;;;;5021247;28;20056;-59
2021/03/29 03:03:56;;;;;;;15.57;6.30;;;2.90;86.50;;;;;;5028046;28;20064;-59
2021/03/29 03:06:24;;;;;;;16.10;5.90;;;2.80;87.20;;;;;;5025154;28;20382;-59
2021/03/29 03:08:51;;;;;;;12.07;5.18;;;2.90;87.90;;;;;;5031681;28;20048;-59
2021/03/29 03:11:19;;;;;;;16.70;6.10;;;2.90;88.50;;;;;;5024624;28;20521;-60
2021/03/29 03:13:47;;;;;;;15.68;5.63;;;3.00;88.60;;;;;;5028139;28;20042;-59
2021/03/29 03:16:14;;;;;;;19.67;6.90;;;3.10;88.60;;;;;;5014302;28;20041;-59
2021/03/29 03:18:41;;;;;;;23.05;6.18;;;3.00;88.70;;;;;;5021475;28;20493;-59
2021/03/29 03:21:08;;;;;;;23.17;7.18;;;3.00;89.10;;;;;;5019601;28;20041;-59
2021/03/29 03:23:35;;;;;;;17.85;6.88;;;3.00;88.90;;;;;;5023541;28;20465;-59
2021/03/29 03:26:02;;;;;;;21.88;7.03;;;3.00;88.70;;;;;;5002366;28;20068;-60
2021/03/29 03:28:31;;;;;;;21.23;7.60;;;3.00;88.90;;;;;;5012384;28;20099;-58
2021/03/29 03:30:58;;;;;;;21.83;7.65;;;3.10;89.10;;;;;;5023193;28;20057;-58
2021/03/29 03:33:27;;;;;;;15.93;7.28;;;3.10;89.40;;;;;;5017324;28;20461;-58
2021/03/29 03:35:55;;;;;;;21.77;7.53;;;3.10;90.10;;;;;;5016928;28;20045;-57
2021/03/29 03:38:34;;;;;;;24.42;7.53;;;3.00;90.20;;;;;;5024243;28;20057;-58
2021/03/29 03:41:04;;;;;;;16.15;6.93;;;3.10;90.70;;;;;;5029795;28;20042;-59
2021/03/29 03:43:36;;;;;;;21.13;7.25;;;3.30;90.60;;;;;;5024240;28;20478;-59
2021/03/29 03:46:08;;;;;;;22.05;7.72;;;3.30;90.70;;;;;;5028181;28;20041;-60
2021/03/29 03:48:37;;;;;;;22.77;7.43;;;3.30;90.80;;;;;;5011069;28;20117;-59
2021/03/29 03:51:06;;;;;;;20.08;7.13;;;3.40;90.70;;;;;;5019820;28;20045;-59
2021/03/29 03:53:34;;;;;;;19.23;7.03;;;3.40;90.30;;;;;;5014663;28;20045;-59
2021/03/29 03:56:01;;;;;;;22.45;8.68;;;3.40;90.10;;;;;;5029976;28;20052;-59
2021/03/29 03:58:29;;;;;;;19.35;7.20;;;3.40;90.20;;;;;;5016798;28;22289;-59
2021/03/29 04:00:57;;;;;;;19.42;8.07;;;3.40;90.10;;;;;;5012716;28;20556;-58
2021/03/29 04:03:25;;;;;;;21.35;7.43;;;3.40;90.20;;;;;;5011889;28;20049;-57
2021/03/29 04:05:52;;;;;;;18.95;8.02;;;3.40;90.20;;;;;;5023003;28;20049;-57
2021/03/29 04:08:38;;;;;;;20.83;8.07;;;3.40;90.30;;;;;;5014895;28;20558;-58
2021/03/29 04:11:06;;;;;;;16.13;7.68;;;3.40;90.30;;;;;;5025257;28;20064;-58
2021/03/29 04:13:33;;;;;;;20.30;8.18;;;3.50;90.30;;;;;;5022926;28;20046;-57
2021/03/29 04:16:06;;;;;;;18.42;7.47;;;3.50;90.30;;;;;;5023094;28;20366;-58
2021/03/29 04:18:34;;;;;;;21.35;7.80;;;3.40;90.50;;;;;;5010465;28;20041;-58
2021/03/29 04:21:03;;;;;;;17.83;6.97;;;3.50;90.30;;;;;;5018573;28;20046;-57
2021/03/29 04:23:30;;;;;;;28.98;10.68;;;3.50;90.30;;;;;;5027686;28;20049;-57
2021/03/29 04:25:57;;;;;;;24.83;13.02;;;3.50;90.40;;;;;;5010173;28;20394;-58
2021/03/29 04:28:24;;;;;;;42.00;20.23;;;3.50;90.30;;;;;;5012656;28;20041;-58
2021/03/29 04:30:52;;;;;;;48.25;23.50;;;3.50;90.50;;;;;;5012982;28;20041;-57
2021/03/29 04:33:19;;;;;;;34.70;21.00;;;3.50;90.60;;;;;;5024881;28;20056;-57
2021/03/29 04:35:47;;;;;;;35.63;19.73;;;3.50;90.40;;;;;;5022010;28;20041;-58
2021/03/29 04:38:14;;;;;;;36.00;17.20;;;3.50;90.30;;;;;;5022099;28;20049;-58
2021/03/29 04:40:40;;;;;;;37.58;17.27;;;3.50;90.30;;;;;;5017207;28;20049;-57
2021/03/29 04:43:09;;;;;;;34.45;17.35;;;3.60;90.30;;;;;;5027258;28;20034;-57
2021/03/29 04:45:36;;;;;;;29.45;15.10;;;3.50;90.00;;;;;;5022505;28;20033;-57
2021/03/29 04:48:03;;;;;;;26.83;13.63;;;3.50;90.10;;;;;;5030958;28;20048;-59
2021/03/29 04:50:30;;;;;;;24.15;11.45;;;3.40;90.10;;;;;;5027657;28;20062;-60
2021/03/29 04:52:56;;;;;;;25.30;10.40;;;3.40;90.10;;;;;;5031943;28;20038;-59
2021/03/29 04:55:23;;;;;;;20.15;10.25;;;3.60;90.00;;;;;;5033378;28;20052;-60
2021/03/29 04:57:49;;;;;;;30.75;10.70;;;3.60;89.80;;;;;;5031397;28;20045;-59
2021/03/29 05:00:16;;;;;;;21.65;9.35;;;3.70;89.30;;;;;;5020086;28;20041;-59
2021/03/29 05:02:43;;;;;;;22.30;9.20;;;3.70;88.70;;;;;;5029798;28;20048;-59
2021/03/29 05:05:10;;;;;;;22.30;10.13;;;3.70;88.30;;;;;;5018858;28;20100;-58
2021/03/29 05:07:37;;;;;;;28.90;11.07;;;3.70;88.40;;;;;;5020715;28;20029;-59
2021/03/29 05:10:11;;;;;;;31.60;12.05;;;3.80;88.10;;;;;;5012349;28;20058;-60
2021/03/29 05:12:38;;;;;;;25.35;12.20;;;3.80;87.80;;;;;;5031156;28;20643;-60
2021/03/29 05:15:06;;;;;;;32.63;12.65;;;3.90;87.60;;;;;;5027177;28;20509;-60
2021/03/29 05:17:33;;;;;;;31.52;11.68;;;3.80;87.80;;;;;;5017459;28;20037;-59
2021/03/29 05:20:01;;;;;;;20.48;10.23;;;3.90;86.60;;;;;;5015315;28;20050;-59
2021/03/29 05:22:28;;;;;;;26.85;10.00;;;3.90;86.90;;;;;;5013984;28;20113;-59
2021/03/29 05:24:54;;;;;;;26.27;10.65;;;4.00;85.80;;;;;;5031917;28;20485;-58
2021/03/29 05:27:20;;;;;;;26.25;10.25;;;4.10;85.60;;;;;;5011224;28;20045;-59
2021/03/29 05:29:47;;;;;;;25.90;10.23;;;4.10;86.00;;;;;;5024692;28;20045;-59
2021/03/29 05:32:22;;;;;;;19.70;9.38;;;4.20;86.20;;;;;;5018003;28;20042;-59
2021/03/29 05:34:51;;;;;;;21.50;8.98;;;4.20;87.00;;;;;;5011806;28;20422;-58
2021/03/29 05:37:18;;;;;;;26.73;9.43;;;4.20;87.80;;;;;;5024556;28;20046;-59
2021/03/29 05:39:46;;;;;;;22.63;8.98;;;4.30;87.50;;;;;;5019240;28;20046;-58
2021/03/29 05:42:17;;;;;;;19.67;8.88;;;4.30;87.40;;;;;;5013665;28;20046;-59
2021/03/29 05:44:44;;;;;;;22.17;9.05;;;4.30;87.60;;;;;;5023790;28;20049;-59
2021/03/29 05:47:11;;;;;;;24.92;9.75;;;4.40;88.30;;;;;;5012827;28;20049;-58
2021/03/29 05:49:38;;;;;;;27.98;9.27;;;4.40;88.80;;;;;;5016291;28;20113;-59
2021/03/29 05:52:04;;;;;;;20.70;8.80;;;4.50;88.80;;;;;;5019210;28;20052;-58
2021/03/29 05:54:31;;;;;;;22.25;7.63;;;4.50;88.30;;;;;;5057682;28;20038;-58
2021/03/29 05:56:58;;;;;;;19.23;8.30;;;4.60;88.30;;;;;;5025613;28;20401;-59
2021/03/29 05:59:42;;;;;;;19.88;8.57;;;4.70;89.30;;;;;;5004369;28;20496;-60
2021/03/29 06:02:23;;;;;;;25.75;8.23;;;4.70;89.00;;;;;;5039762;28;20045;-58
2021/03/29 06:04:50;;;;;;;19.23;8.23;;;4.80;89.00;;;;;;5015251;28;20045;-59
2021/03/29 06:07:25;;;;;;;23.48;8.73;;;4.80;88.50;;;;;;5019371;28;20485;-59
2021/03/29 06:09:54;;;;;;;19.58;7.95;;;4.90;88.60;;;;;;5042407;28;20046;-59
2021/03/29 06:12:22;;;;;;;22.23;7.32;;;5.00;88.90;;;;;;5024805;28;20117;-59
2021/03/29 06:15:00;;;;;;;16.55;7.13;;;5.10;89.60;;;;;;5024749;28;20045;-59
2021/03/29 06:17:27;;;;;;;16.38;7.45;;;5.30;89.20;;;;;;5025506;28;20041;-60
2021/03/29 06:19:59;;;;;;;20.23;7.35;;;5.40;89.00;;;;;;5017570;28;20054;-60
2021/03/29 06:22:31;;;;;;;14.75;6.95;;;5.60;88.80;;;;;;5023000;28;20041;-60
2021/03/29 06:25:14;;;;;;;19.30;6.78;;;5.80;88.30;;;;;;5036012;28;20633;-59
2021/03/29 06:27:52;;;;;;;;;;;6.00;87.70;;;;;;5020077;28;20052;-59
2021/03/29 06:30:37;;;;;;;21.85;6.47;;;6.20;87.20;;;;;;5032019;28;19922;-60
2021/03/29 06:33:07;;;;;;;35.78;13.88;;;6.50;86.20;;;;;;5016844;28;20042;-59
2021/03/29 06:35:36;;;;;;;22.20;7.60;;;6.70;86.20;;;;;;5030377;28;20394;-59
2021/03/29 06:38:30;;;;;;;16.13;7.43;;;6.80;85.90;;;;;;5023678;28;20132;-59
2021/03/29 06:40:59;;;;;;;19.60;7.93;;;7.00;85.90;;;;;;5020628;28;20054;-60
2021/03/29 06:43:35;;;;;;;18.23;6.50;;;7.10;86.10;;;;;;5010991;28;20081;-59
2021/03/29 06:46:08;;;;;;;18.40;6.93;;;7.30;86.20;;;;;;5014721;28;20038;-59
2021/03/29 06:48:37;;;;;;;;;;;7.40;85.90;;;;;;5020600;28;20121;-60
2021/03/29 06:51:25;;;;;;;15.57;6.07;;;7.60;85.50;;;;;;5019976;28;20372;-59
2021/03/29 06:53:56;;;;;;;14.60;6.63;;;7.80;84.30;;;;;;5017584;28;20041;-59
2021/03/29 06:56:23;;;;;;;19.77;7.45;;;8.00;83.60;;;;;;5016956;28;20045;-59
2021/03/29 06:58:52;;;;;;;18.02;7.25;;;8.20;83.30;;;;;;5022905;28;20084;-60
2021/03/29 07:01:26;;;;;;;17.48;7.00;;;8.40;82.80;;;;;;5025053;28;20133;-60
2021/03/29 07:03:54;;;;;;;18.63;6.13;;;8.60;82.40;;;;;;5020544;28;20049;-59
2021/03/29 07:06:23;;;;;;;16.13;6.32;;;8.80;82.20;;;;;;5015858;28;20069;-60
2021/03/29 07:08:50;;;;;;;19.58;6.30;;;9.00;81.50;;;;;;5014235;28;20583;-60
2021/03/29 07:11:20;;;;;;;12.02;5.55;;;9.20;81.10;;;;;;5010595;28;20054;-60
2021/03/29 07:13:48;;;;;;;18.90;6.03;;;9.40;79.50;;;;;;5025728;28;20751;-60
2021/03/29 07:16:16;;;;;;;12.23;5.60;;;9.70;78.10;;;;;;5011169;28;20052;-59
2021/03/29 07:18:42;;;;;;;11.90;5.40;;;9.80;76.70;;;;;;5011325;28;20041;-59
2021/03/29 07:21:11;;;;;;;12.48;5.25;;;9.90;76.50;;;;;;5021499;28;20107;-59
2021/03/29 07:23:39;;;;;;;11.18;5.05;;;10.00;76.80;;;;;;5020226;28;20141;-59
2021/03/29 07:26:32;;;;;;;12.52;4.95;;;10.10;75.20;;;;;;5016821;28;20429;-60
2021/03/29 07:29:15;;;;;;;15.63;4.85;;;10.20;74.40;;;;;;5025588;28;20558;-59
2021/03/29 07:31:43;;;;;;;15.55;5.53;;;10.30;74.00;;;;;;5020912;28;20041;-60
2021/03/29 07:34:11;;;;;;;13.73;5.32;;;10.40;73.40;;;;;;5020121;28;20095;-61
2021/03/29 07:36:45;;;;;;;11.35;3.97;;;10.60;73.10;;;;;;5025321;28;20045;-60
2021/03/29 07:39:19;;;;;;;8.95;3.95;;;10.70;72.30;;;;;;5021879;28;20061;-60
2021/03/29 07:41:45;;;;;;;10.95;4.65;;;10.90;72.30;;;;;;5020337;28;20041;-59
2021/03/29 07:44:15;;;;;;;12.68;3.83;;;11.00;71.10;;;;;;5020741;28;20079;-60
2021/03/29 07:46:48;;;;;;;10.68;3.47;;;10.90;70.20;;;;;;5031987;28;20029;-60
2021/03/29 07:49:33;;;;;;;;;;;11.00;70.60;;;;;;5020866;28;20053;-59
2021/03/29 07:52:34;;;;;;;6.13;2.40;;;11.10;70.30;;;;;;5029515;28;19924;-60
2021/03/29 07:55:14;;;;;;;10.65;2.38;;;11.30;68.50;;;;;;5036108;28;20412;-60
2021/03/29 07:57:44;;;;;;;7.07;2.38;;;11.30;67.50;;;;;;5013362;28;20092;-61
2021/03/29 08:00:23;;;;;;;7.75;2.63;;;11.40;68.20;;;;;;5023455;28;20057;-60
2021/03/29 08:03:01;;;;;;;9.25;2.90;;;11.60;67.60;;;;;;5020841;28;20044;-60
2021/03/29 08:05:37;;;;;;;10.45;3.97;;;11.60;66.90;;;;;;5056094;28;20084;-61
2021/03/29 08:08:24;;;;;;;6.00;2.45;;;11.70;66.30;;;;;;5028102;28;20386;-60
2021/03/29 08:11:14;;;;;;;7.40;3.33;;;11.90;65.90;;;;;;5015142;28;20050;-61
2021/03/29 08:13:56;;;;;;;15.70;5.25;;;12.00;65.40;;;;;;5023346;28;20041;-59
2021/03/29 08:16:28;;;;;;;7.63;3.03;;;12.20;66.50;;;;;;5020819;28;20041;-59
2021/03/29 08:19:15;;;;;;;4.78;2.80;;;12.50;65.40;;;;;;5031809;28;20056;-60
2021/03/29 08:21:48;;;;;;;10.48;3.05;;;12.60;64.10;;;;;;5025275;28;20046;-60
2021/03/29 08:24:19;;;;;;;8.35;2.80;;;12.90;63.90;;;;;;5021963;28;20079;-59
2021/03/29 08:26:48;;;;;;;7.65;2.90;;;13.00;62.80;;;;;;5026270;28;20065;-59
2021/03/29 08:29:19;;;;;;;4.72;2.50;;;13.20;61.90;;;;;;5015688;28;20413;-59
2021/03/29 08:32:14;;;;;;;7.60;2.85;;;13.40;61.90;;;;;;5035248;28;20052;-59
2021/03/29 08:34:54;;;;;;;8.05;3.30;;;13.50;61.50;;;;;;5034939;28;20074;-60
2021/03/29 08:37:26;;;;;;;8.60;2.63;;;13.70;60.90;;;;;;5024460;28;20053;-59
2021/03/29 08:39:55;;;;;;;8.98;2.97;;;13.70;60.40;;;;;;5032497;28;20858;-59
2021/03/29 08:42:26;;;;;;;6.47;2.38;;;13.90;60.40;;;;;;5024948;28;20044;-59
2021/03/29 08:44:53;;;;;;;5.43;2.22;;;14.00;59.70;;;;;;5026729;28;20046;-60
2021/03/29 08:47:22;;;;;;;7.78;2.65;;;14.20;59.30;;;;;;5026421;28;20469;-60
2021/03/29 08:49:55;;;;;;;7.57;2.30;;;14.20;59.20;;;;;;5029819;28;20038;-59
2021/03/29 08:52:24;;;;;;;11.75;2.75;;;14.10;58.80;;;;;;5028424;28;20037;-59
2021/03/29 08:54:57;;;;;;;7.68;2.03;;;14.20;59.00;;;;;;5025696;28;20046;-60
2021/03/29 08:57:26;;;;;;;6.00;2.10;;;14.40;58.40;;;;;;5021315;28;20473;-60
2021/03/29 08:59:59;;;;;;;8.68;2.42;;;14.50;58.40;;;;;;5023019;28;20510;-60
2021/03/29 09:02:28;;;;;;;4.38;2.00;;;14.50;57.90;;;;;;5030051;28;20049;-61
2021/03/29 09:04:59;;;;;;;4.68;1.70;;;14.60;57.90;;;;;;5015233;28;20034;-60
2021/03/29 09:07:32;;;;;;;6.35;2.20;;;14.60;57.40;;;;;;5026134;28;20048;-61
2021/03/29 09:10:00;;;;;;;4.82;1.75;;;14.60;57.40;;;;;;5013892;28;20054;-60
2021/03/29 09:12:32;;;;;;;9.13;2.30;;;14.60;57.70;;;;;;5023527;28;20133;-61
2021/03/29 09:15:00;;;;;;;5.22;1.70;;;14.80;57.50;;;;;;5023636;28;20051;-60
2021/03/29 09:17:32;;;;;;;7.15;1.88;;;14.90;57.10;;;;;;5020098;28;20046;-60
2021/03/29 09:20:01;;;;;;;6.15;2.75;;;15.00;56.50;;;;;;5021808;28;20095;-60
2021/03/29 09:22:30;;;;;;;4.15;1.90;;;15.00;56.10;;;;;;5003258;28;20656;-60
2021/03/29 09:24:57;;;;;;;5.32;2.13;;;15.20;56.80;;;;;;5015383;28;20049;-60
2021/03/29 09:27:38;;;;;;;8.63;2.10;;;15.40;55.60;;;;;;5022353;28;20487;-60
2021/03/29 09:30:09;;;;;;;4.85;2.08;;;15.50;55.40;;;;;;5024335;28;20072;-60
2021/03/29 09:32:39;;;;;;;4.53;2.00;;;15.60;54.40;;;;;;5026213;28;20045;-60
2021/03/29 09:35:07;;;;;;;5.63;2.15;;;15.70;53.50;;;;;;5020790;28;20121;-60
2021/03/29 09:37:33;;;;;;;4.35;2.08;;;15.70;53.90;;;;;;5021855;28;20563;-60
2021/03/29 09:40:06;;;;;;;8.07;2.75;;;15.90;53.60;;;;;;5018275;28;20080;-60
2021/03/29 09:42:48;;;;;;;7.00;2.05;;;16.30;53.80;;;;;;5022531;28;20044;-60
2021/03/29 09:45:27;;;;;;;6.63;2.80;;;16.60;52.50;;;;;;5016914;28;20041;-60
2021/03/29 09:48:06;;;;;;;4.82;2.20;;;16.70;51.90;;;;;;5014175;28;20054;-60
2021/03/29 09:50:34;;;;;;;2.83;1.45;;;17.00;51.50;;;;;;5022515;28;20041;-60
2021/03/29 09:53:15;;;;;;;5.20;1.80;;;16.60;49.20;;;;;;5019992;28;20086;-60
2021/03/29 09:55:45;;;;;;;3.75;1.58;;;17.00;49.50;;;;;;5021734;28;20041;-59
2021/03/29 09:58:30;;;;;;;2.90;0.95;;;17.30;47.60;;;;;;5027167;28;20048;-60
2021/03/29 10:01:03;;;;;;;2.63;0.88;;;17.70;48.20;;;;;;5020234;28;20048;-60
2021/03/29 10:03:56;;;;;;;4.15;1.17;;;17.80;45.30;;;;;;5029028;28;20112;-60
2021/03/29 10:06:25;;;;;;;2.42;0.93;;;18.00;46.40;;;;;;5010835;28;20172;-60
2021/03/29 10:08:57;;;;;;;5.45;1.80;;;18.20;45.20;;;;;;5019173;28;20054;-60
2021/03/29 10:11:24;;;;;;;2.65;0.93;;;18.50;46.80;;;;;;5013635;28;20512;-60
2021/03/29 10:14:04;;;;;;;4.05;1.20;;;18.30;43.60;;;;;;5020139;28;20053;-61
2021/03/29 10:16:30;;;;;;;4.53;0.75;;;18.30;43.40;;;;;;5028652;28;20049;-60
2021/03/29 10:19:14;;;;;;;5.43;1.40;;;18.40;43.40;;;;;;5023292;28;20632;-61
2021/03/29 10:22:05;;;;;;;3.90;1.38;;;18.50;46.20;;;;;;5020912;28;20050;-60
2021/03/29 10:24:37;;;;;;;3.70;1.50;;;18.80;46.00;;;;;;5023779;28;20037;-59
2021/03/29 10:27:07;;;;;;;5.32;1.15;;;19.10;44.40;;;;;;5018363;28;20052;-61
2021/03/29 10:29:38;;;;;;;4.40;1.58;;;19.40;43.80;;;;;;5021567;28;20041;-60
2021/03/29 10:32:07;;;;;;;2.95;1.27;;;19.10;43.50;;;;;;5016948;28;20052;-61
2021/03/29 10:34:38;;;;;;;3.80;1.45;;;19.40;44.90;;;;;;5016812;28;20132;-61
2021/03/29 10:37:26;;;;;;;4.80;1.55;;;19.80;44.10;;;;;;5020777;28;20049;-61
2021/03/29 10:39:55;;;;;;;3.92;1.20;;;19.60;42.90;;;;;;5010231;28;20057;-60
2021/03/29 10:42:24;;;;;;;6.32;1.67;;;19.60;44.20;;;;;;5012028;28;20054;-60
2021/03/29 10:44:55;;;;;;;2.63;1.30;;;19.30;43.00;;;;;;5026069;28;20046;-60
2021/03/29 10:47:22;;;;;;;3.90;1.08;;;18.90;43.40;;;;;;5022662;28;20045;-60
2021/03/29 10:49:49;;;;;;;3.85;1.55;;;19.10;45.60;;;;;;5009463;28;20430;-60
2021/03/29 10:52:21;;;;;;;12.23;1.67;;;19.20;43.70;;;;;;5027186;28;20431;-60
2021/03/29 10:54:49;;;;;;;4.13;1.40;;;19.30;43.70;;;;;;5026563;28;20056;-60
2021/03/29 10:57:16;;;;;;;4.88;1.10;;;19.50;43.20;;;;;;5020918;28;20045;-60
2021/03/29 10:59:45;;;;;;;7.70;1.25;;;19.30;42.80;;;;;;5019123;28;20049;-60
2021/03/29 11:02:12;;;;;;;3.70;1.65;;;19.10;43.00;;;;;;5016064;28;20100;-60
2021/03/29 11:04:38;;;;;;;3.95;1.45;;;19.20;44.20;;;;;;5012237;28;20209;-60
2021/03/29 11:07:09;;;;;;;5.22;1.15;;;19.00;43.40;;;;;;5012465;28;20404;-60
2021/03/29 11:09:37;;;;;;;3.63;1.40;;;19.00;44.20;;;;;;5023874;28;20053;-59
2021/03/29 11:12:14;;;;;;;3.30;1.40;;;19.00;44.30;;;;;;5014204;28;20840;-60
2021/03/29 11:14:44;;;;;;;5.00;1.60;;;19.20;43.50;;;;;;5017111;28;20500;-60
2021/03/29 11:17:22;;;;;;;4.22;1.35;;;19.20;43.70;;;;;;5030974;28;20049;-61
2021/03/29 11:20:16;;;;;;;4.00;1.17;;;19.40;43.30;;;;;;5015654;28;20050;-60
2021/03/29 11:22:47;;;;;;;5.70;1.73;;;19.30;43.20;;;;;;5032502;28;20056;-60
2021/03/29 11:25:17;;;;;;;;;;;19.30;42.50;;;;;;5020827;28;20137;-60
2021/03/29 11:27:43;;;;;;;3.10;1.00;;;19.50;43.30;;;;;;5023217;28;19929;-60
2021/03/29 11:30:11;;;;;;;4.95;1.80;;;20.00;42.30;;;;;;5016812;28;20048;-60
2021/03/29 11:32:38;;;;;;;4.38;1.00;;;20.00;41.50;;;;;;5019771;28;20103;-60
2021/03/29 11:35:05;;;;;;;4.57;1.23;;;20.10;41.20;;;;;;5033757;28;20053;-60
2021/03/29 11:37:34;;;;;;;5.65;1.00;;;20.30;41.10;;;;;;5019769;28;20061;-61
2021/03/29 11:40:01;;;;;;;4.53;1.17;;;20.70;40.70;;;;;;5026725;28;20460;-61
2021/03/29 11:42:27;;;;;;;2.13;1.08;;;20.60;39.80;;;;;;5015147;28;20042;-61
2021/03/29 11:44:56;;;;;;;3.63;1.10;;;20.50;40.20;;;;;;5013617;28;20048;-60
2021/03/29 11:47:22;;;;;;;3.70;1.38;;;20.80;40.80;;;;;;5027258;28;20049;-60
2021/03/29 11:49:49;;;;;;;5.25;1.73;;;21.00;39.50;;;;;;5028722;28;20037;-61
2021/03/29 11:52:16;;;;;;;6.32;1.30;;;21.20;39.60;;;;;;5014494;28;20061;-60
2021/03/29 11:54:43;;;;;;;4.63;1.17;;;21.30;39.00;;;;;;5010965;28;20037;-60
2021/03/29 11:57:09;;;;;;;4.22;1.20;;;21.40;38.60;;;;;;5011607;28;20109;-60
2021/03/29 11:59:43;;;;;;;3.53;1.33;;;21.20;37.80;;;;;;5017046;28;20057;-60
2021/03/29 12:02:17;;;;;;;2.50;0.93;;;21.10;39.00;;;;;;5014447;28;20042;-60
2021/03/29 12:04:52;;;;;;;8.82;1.30;;;21.60;39.00;;;;;;5019534;28;20038;-60
2021/03/29 12:07:31;;;;;;;5.35;1.98;;;21.90;37.90;;;;;;5011568;28;20456;-61
2021/03/29 12:12:45;;;;;;;4.20;1.13;;;22.50;37.20;;;;;;5023005;28;20124;-60
2021/03/29 12:15:13;;;;;;;5.55;1.20;;;22.80;35.90;;;;;;5028432;28;20155;-60
2021/03/29 12:17:42;;;;;;;4.32;1.02;;;23.10;36.40;;;;;;5020010;28;20504;-60
2021/03/29 12:20:13;;;;;;;4.93;0.80;;;23.60;36.50;;;;;;5027282;28;20041;-61
2021/03/29 12:22:43;;;;;;;3.40;1.20;;;23.90;35.50;;;;;;5013727;28;20038;-60
2021/03/29 12:25:16;;;;;;;3.17;1.00;;;24.10;34.20;;;;;;5018653;28;20516;-60
2021/03/29 12:27:44;;;;;;;5.55;1.00;;;24.20;34.10;;;;;;5034984;28;20104;-60
2021/03/29 12:30:16;;;;;;;1.55;0.98;;;24.70;34.20;;;;;;5000502;28;20053;-61
2021/03/29 12:32:43;;;;;;;;;;;25.30;34.70;;;;;;5011610;28;20046;-61
2021/03/29 12:35:28;;;;;;;4.88;0.80;;;26.00;32.80;;;;;;5016718;28;19921;-61
2021/03/29 12:37:55;;;;;;;4.32;1.05;;;26.70;31.40;;;;;;5022062;28;20528;-60
2021/03/29 12:40:27;;;;;;;5.68;1.35;;;27.10;31.40;;;;;;5025449;28;20046;-59
2021/03/29 12:45:30;;;;;;;2.20;1.00;;;26.40;32.50;;;;;;5021112;28;20053;-60
2021/03/29 12:48:00;;;;;;;3.17;0.68;;;26.50;31.80;;;;;;5019836;28;20049;-60
2021/03/29 12:50:28;;;;;;;2.38;0.95;;;26.80;32.00;;;;;;5021275;28;20033;-60
2021/03/29 12:52:55;;;;;;;4.78;1.10;;;26.80;32.00;;;;;;5010335;28;20046;-60
2021/03/29 12:55:24;;;;;;;5.53;1.05;;;26.60;32.20;;;;;;5025862;28;20046;-60
2021/03/29 12:57:57;;;;;;;3.13;0.93;;;26.80;32.30;;;;;;5020221;28;20654;-59
2021/03/29 13:00:26;;;;;;;6.32;1.73;;;27.60;31.60;;;;;;5017849;28;20477;-60
2021/03/29 13:02:56;;;;;;;3.35;1.05;;;28.10;30.40;;;;;;5021572;28;20470;-59
2021/03/29 13:08:14;;;;;;;3.45;1.15;;;27.70;30.20;;;;;;5016259;28;20334;-60
2021/03/29 13:13:14;;;;;;;2.38;1.13;;;27.60;29.80;;;;;;5030789;28;20567;-60
2021/03/29 13:15:41;;;;;;;2.25;0.80;;;28.90;29.30;;;;;;5022219;28;20057;-60
2021/03/29 13:18:07;;;;;;;5.03;0.98;;;29.30;28.90;;;;;;5024870;28;20045;-61